sensor_id;sensor_type;location;lat;lon;timestamp;P1;durP1;ratioP1;P2;durP2;ratioP2
64873;SDS011;51367;45.204;38.576;2023-08-24T00:00:22;4.03;;;2.78;;
64873;SDS011;51367;45.204;38.576;2023-08-24T00:02:49;2.78;;;2.47;;
64873;SDS011;51367;45.204;38.576;2023-08-24T00:05:15;2.95;;;2.65;;
64873;SDS011;51367;45.204;38.576;2023-08-24T00:07:41;3.53;;;3.00;;
64873;SDS011;51367;45.204;38.576;2023-08-24T00:10:08;3.83;;;3.28;;
64873;SDS011;51367;45.204;38.576;2023-08-24T00:12:34;20.55;;;12.63;;
64873;SDS011;51367;45.204;38.576;2023-08-24T00:15:01;29.65;;;16.65;;
64873;SDS011;51367;45.204;38.576;2023-08-24T00:17:28;10.80;;;8.02;;
64873;SDS011;51367;45.204;38.576;2023-08-24T00:19:54;11.00;;;7.20;;
64873;SDS011;51367;45.204;38.576;2023-08-24T00:22:20;6.88;;;5.38;;
64873;SDS011;51367;45.204;38.576;2023-08-24T00:24:46;3.40;;;2.92;;
64873;SDS011;51367;45.204;38.576;2023-08-24T00:27:12;5.68;;;3.60;;
64873;SDS011;51367;45.204;38.576;2023-08-24T00:29:39;4.40;;;3.97;;
64873;SDS011;51367;45.204;38.576;2023-08-24T00:32:05;4.65;;;3.95;;
64873;SDS011;51367;45.204;38.576;2023-08-24T00:34:32;5.90;;;4.55;;
64873;SDS011;51367;45.204;38.576;2023-08-24T00:36:57;5.32;;;4.10;;
64873;SDS011;51367;45.204;38.576;2023-08-24T00:39:23;7.03;;;4.18;;
64873;SDS011;51367;45.204;38.576;2023-08-24T00:41:49;3.33;;;2.92;;
64873;SDS011;51367;45.204;38.576;2023-08-24T00:44:15;3.63;;;2.88;;
64873;SDS011;51367;45.204;38.576;2023-08-24T00:46:42;11.95;;;2.75;;
64873;SDS011;51367;45.204;38.576;2023-08-24T00:49:08;2.85;;;2.55;;
64873;SDS011;51367;45.204;38.576;2023-08-24T00:51:34;3.35;;;2.58;;
64873;SDS011;51367;45.204;38.576;2023-08-24T00:54:00;3.33;;;2.60;;
64873;SDS011;51367;45.204;38.576;2023-08-24T00:56:26;4.65;;;2.28;;
64873;SDS011;51367;45.204;38.576;2023-08-24T00:58:52;4.10;;;2.72;;
64873;SDS011;51367;45.204;38.576;2023-08-24T01:01:20;3.58;;;2.53;;
64873;SDS011;51367;45.204;38.576;2023-08-24T01:03:46;12.45;;;2.47;;
64873;SDS011;51367;45.204;38.576;2023-08-24T01:06:12;8.75;;;3.08;;
64873;SDS011;51367;45.204;38.576;2023-08-24T01:08:38;9.98;;;2.58;;
64873;SDS011;51367;45.204;38.576;2023-08-24T01:13:39;3.80;;;2.70;;
64873;SDS011;51367;45.204;38.576;2023-08-24T01:16:29;3.80;;;2.33;;
64873;SDS011;51367;45.204;38.576;2023-08-24T01:18:59;4.65;;;2.60;;
64873;SDS011;51367;45.204;38.576;2023-08-24T01:21:25;5.63;;;2.35;;
64873;SDS011;51367;45.204;38.576;2023-08-24T01:26:40;3.50;;;3.20;;
64873;SDS011;51367;45.204;38.576;2023-08-24T01:29:07;4.45;;;2.92;;
64873;SDS011;51367;45.204;38.576;2023-08-24T01:31:34;3.42;;;2.20;;
64873;SDS011;51367;45.204;38.576;2023-08-24T01:34:00;3.38;;;1.90;;
64873;SDS011;51367;45.204;38.576;2023-08-24T01:36:26;2.90;;;2.00;;
64873;SDS011;51367;45.204;38.576;2023-08-24T01:38:54;9.35;;;2.17;;
64873;SDS011;51367;45.204;38.576;2023-08-24T01:41:38;3.63;;;1.70;;
64873;SDS011;51367;45.204;38.576;2023-08-24T01:44:09;2.65;;;2.30;;
64873;SDS011;51367;45.204;38.576;2023-08-24T01:46:37;3.35;;;1.88;;
64873;SDS011;51367;45.204;38.576;2023-08-24T01:49:05;3.08;;;2.60;;
64873;SDS011;51367;45.204;38.576;2023-08-24T01:51:34;6.13;;;2.97;;
64873;SDS011;51367;45.204;38.576;2023-08-24T01:54:01;2.40;;;2.17;;
64873;SDS011;51367;45.204;38.576;2023-08-24T01:56:27;11.70;;;1.80;;
64873;SDS011;51367;45.204;38.576;2023-08-24T01:58:53;2.33;;;2.13;;
64873;SDS011;51367;45.204;38.576;2023-08-24T02:01:19;5.57;;;2.65;;
64873;SDS011;51367;45.204;38.576;2023-08-24T02:03:45;2.28;;;2.10;;
64873;SDS011;51367;45.204;38.576;2023-08-24T02:06:11;1.98;;;1.88;;
64873;SDS011;51367;45.204;38.576;2023-08-24T02:08:37;4.10;;;2.00;;
64873;SDS011;51367;45.204;38.576;2023-08-24T02:11:03;12.20;;;2.45;;
64873;SDS011;51367;45.204;38.576;2023-08-24T02:13:31;3.30;;;2.10;;
64873;SDS011;51367;45.204;38.576;2023-08-24T02:16:04;2.25;;;2.05;;
64873;SDS011;51367;45.204;38.576;2023-08-24T02:18:31;2.45;;;1.85;;
64873;SDS011;51367;45.204;38.576;2023-08-24T02:20:57;2.45;;;2.17;;
64873;SDS011;51367;45.204;38.576;2023-08-24T02:23:23;3.30;;;2.45;;
64873;SDS011;51367;45.204;38.576;2023-08-24T02:25:49;6.93;;;2.45;;
64873;SDS011;51367;45.204;38.576;2023-08-24T02:28:14;2.38;;;2.13;;
64873;SDS011;51367;45.204;38.576;2023-08-24T02:30:40;3.47;;;2.60;;
64873;SDS011;51367;45.204;38.576;2023-08-24T02:33:06;4.63;;;4.00;;
64873;SDS011;51367;45.204;38.576;2023-08-24T02:35:33;2.90;;;2.63;;
64873;SDS011;51367;45.204;38.576;2023-08-24T02:37:58;8.05;;;2.45;;
64873;SDS011;51367;45.204;38.576;2023-08-24T02:40:24;2.47;;;2.28;;
64873;SDS011;51367;45.204;38.576;2023-08-24T02:42:50;10.13;;;2.65;;
64873;SDS011;51367;45.204;38.576;2023-08-24T02:45:16;4.78;;;2.35;;
64873;SDS011;51367;45.204;38.576;2023-08-24T02:47:42;2.33;;;2.08;;
64873;SDS011;51367;45.204;38.576;2023-08-24T02:50:08;4.10;;;2.65;;
64873;SDS011;51367;45.204;38.576;2023-08-24T02:52:34;11.07;;;3.67;;
64873;SDS011;51367;45.204;38.576;2023-08-24T02:55:00;3.95;;;2.72;;
64873;SDS011;51367;45.204;38.576;2023-08-24T02:57:26;3.90;;;3.45;;
64873;SDS011;51367;45.204;38.576;2023-08-24T02:59:52;6.28;;;2.92;;
64873;SDS011;51367;45.204;38.576;2023-08-24T03:02:19;7.20;;;3.58;;
64873;SDS011;51367;45.204;38.576;2023-08-24T03:04:45;7.63;;;5.07;;
64873;SDS011;51367;45.204;38.576;2023-08-24T03:07:10;8.02;;;5.60;;
64873;SDS011;51367;45.204;38.576;2023-08-24T03:09:37;19.33;;;15.77;;
64873;SDS011;51367;45.204;38.576;2023-08-24T03:12:03;34.22;;;18.52;;
64873;SDS011;51367;45.204;38.576;2023-08-24T03:14:29;24.98;;;14.40;;
64873;SDS011;51367;45.204;38.576;2023-08-24T03:16:55;20.50;;;13.65;;
64873;SDS011;51367;45.204;38.576;2023-08-24T03:19:21;32.63;;;18.20;;
64873;SDS011;51367;45.204;38.576;2023-08-24T03:21:47;27.13;;;17.08;;
64873;SDS011;51367;45.204;38.576;2023-08-24T03:24:14;16.90;;;11.60;;
64873;SDS011;51367;45.204;38.576;2023-08-24T03:26:40;7.65;;;6.75;;
64873;SDS011;51367;45.204;38.576;2023-08-24T03:29:07;14.63;;;6.28;;
64873;SDS011;51367;45.204;38.576;2023-08-24T03:31:33;9.90;;;5.10;;
64873;SDS011;51367;45.204;38.576;2023-08-24T03:33:59;14.45;;;7.45;;
64873;SDS011;51367;45.204;38.576;2023-08-24T03:36:25;10.45;;;6.60;;
64873;SDS011;51367;45.204;38.576;2023-08-24T03:38:52;9.73;;;6.70;;
64873;SDS011;51367;45.204;38.576;2023-08-24T03:41:18;32.30;;;10.48;;
64873;SDS011;51367;45.204;38.576;2023-08-24T03:43:45;21.17;;;11.13;;
64873;SDS011;51367;45.204;38.576;2023-08-24T03:46:11;28.30;;;14.20;;
64873;SDS011;51367;45.204;38.576;2023-08-24T03:48:40;32.05;;;15.10;;
64873;SDS011;51367;45.204;38.576;2023-08-24T03:51:06;20.83;;;12.02;;
64873;SDS011;51367;45.204;38.576;2023-08-24T03:53:35;12.45;;;8.48;;
64873;SDS011;51367;45.204;38.576;2023-08-24T03:56:01;9.93;;;6.35;;
64873;SDS011;51367;45.204;38.576;2023-08-24T03:58:27;6.35;;;4.63;;
64873;SDS011;51367;45.204;38.576;2023-08-24T04:00:53;6.82;;;4.88;;
64873;SDS011;51367;45.204;38.576;2023-08-24T04:03:20;5.95;;;3.78;;
64873;SDS011;51367;45.204;38.576;2023-08-24T04:05:47;16.45;;;4.50;;
64873;SDS011;51367;45.204;38.576;2023-08-24T04:08:12;4.88;;;3.38;;
64873;SDS011;51367;45.204;38.576;2023-08-24T04:10:38;6.45;;;3.25;;
64873;SDS011;51367;45.204;38.576;2023-08-24T04:13:04;19.75;;;4.13;;
64873;SDS011;51367;45.204;38.576;2023-08-24T04:15:30;10.52;;;3.35;;
64873;SDS011;51367;45.204;38.576;2023-08-24T04:17:57;5.45;;;2.35;;
64873;SDS011;51367;45.204;38.576;2023-08-24T04:20:23;4.22;;;2.55;;
64873;SDS011;51367;45.204;38.576;2023-08-24T04:22:48;3.35;;;2.53;;
64873;SDS011;51367;45.204;38.576;2023-08-24T04:25:14;9.60;;;3.30;;
64873;SDS011;51367;45.204;38.576;2023-08-24T04:27:40;6.10;;;3.30;;
64873;SDS011;51367;45.204;38.576;2023-08-24T04:30:07;4.22;;;2.80;;
64873;SDS011;51367;45.204;38.576;2023-08-24T04:32:36;4.13;;;2.92;;
64873;SDS011;51367;45.204;38.576;2023-08-24T04:35:03;7.38;;;3.10;;
64873;SDS011;51367;45.204;38.576;2023-08-24T04:37:29;8.82;;;3.35;;
64873;SDS011;51367;45.204;38.576;2023-08-24T04:39:55;3.70;;;3.38;;
64873;SDS011;51367;45.204;38.576;2023-08-24T04:42:21;13.43;;;4.22;;
64873;SDS011;51367;45.204;38.576;2023-08-24T04:44:47;9.15;;;4.30;;
64873;SDS011;51367;45.204;38.576;2023-08-24T04:47:12;14.50;;;3.90;;
64873;SDS011;51367;45.204;38.576;2023-08-24T04:49:39;3.90;;;3.10;;
64873;SDS011;51367;45.204;38.576;2023-08-24T04:52:04;3.25;;;2.95;;
64873;SDS011;51367;45.204;38.576;2023-08-24T04:54:30;3.83;;;2.63;;
64873;SDS011;51367;45.204;38.576;2023-08-24T04:56:57;2.60;;;2.40;;
64873;SDS011;51367;45.204;38.576;2023-08-24T04:59:23;6.03;;;2.92;;
64873;SDS011;51367;45.204;38.576;2023-08-24T05:01:49;9.10;;;2.90;;
64873;SDS011;51367;45.204;38.576;2023-08-24T05:04:15;5.22;;;4.72;;
64873;SDS011;51367;45.204;38.576;2023-08-24T05:06:41;4.35;;;3.28;;
64873;SDS011;51367;45.204;38.576;2023-08-24T05:09:07;6.82;;;3.38;;
64873;SDS011;51367;45.204;38.576;2023-08-24T05:11:33;5.18;;;2.88;;
64873;SDS011;51367;45.204;38.576;2023-08-24T05:13:59;3.58;;;2.85;;
64873;SDS011;51367;45.204;38.576;2023-08-24T05:16:25;12.48;;;3.80;;
64873;SDS011;51367;45.204;38.576;2023-08-24T05:18:53;4.55;;;3.38;;
64873;SDS011;51367;45.204;38.576;2023-08-24T05:21:19;4.80;;;3.70;;
64873;SDS011;51367;45.204;38.576;2023-08-24T05:23:45;3.47;;;2.92;;
64873;SDS011;51367;45.204;38.576;2023-08-24T05:26:11;9.95;;;3.05;;
64873;SDS011;51367;45.204;38.576;2023-08-24T05:28:36;5.35;;;2.83;;
64873;SDS011;51367;45.204;38.576;2023-08-24T05:31:02;14.23;;;3.38;;
64873;SDS011;51367;45.204;38.576;2023-08-24T05:33:28;3.38;;;3.08;;
64873;SDS011;51367;45.204;38.576;2023-08-24T05:35:56;4.50;;;2.33;;
64873;SDS011;51367;45.204;38.576;2023-08-24T05:38:23;5.68;;;2.78;;
64873;SDS011;51367;45.204;38.576;2023-08-24T05:40:49;2.83;;;2.35;;
64873;SDS011;51367;45.204;38.576;2023-08-24T05:43:15;3.28;;;2.97;;
64873;SDS011;51367;45.204;38.576;2023-08-24T05:45:41;2.28;;;1.85;;
64873;SDS011;51367;45.204;38.576;2023-08-24T05:48:10;2.72;;;2.10;;
64873;SDS011;51367;45.204;38.576;2023-08-24T05:50:37;1.85;;;1.73;;
64873;SDS011;51367;45.204;38.576;2023-08-24T05:53:07;1.80;;;1.70;;
64873;SDS011;51367;45.204;38.576;2023-08-24T05:55:33;3.42;;;2.50;;
64873;SDS011;51367;45.204;38.576;2023-08-24T05:57:59;4.50;;;2.60;;
64873;SDS011;51367;45.204;38.576;2023-08-24T06:00:25;8.82;;;2.20;;
64873;SDS011;51367;45.204;38.576;2023-08-24T06:02:50;3.90;;;1.90;;
64873;SDS011;51367;45.204;38.576;2023-08-24T06:05:16;5.70;;;2.63;;
64873;SDS011;51367;45.204;38.576;2023-08-24T06:07:43;2.72;;;2.25;;
64873;SDS011;51367;45.204;38.576;2023-08-24T06:10:11;2.08;;;1.85;;
64873;SDS011;51367;45.204;38.576;2023-08-24T06:12:37;3.08;;;2.50;;
64873;SDS011;51367;45.204;38.576;2023-08-24T06:15:04;2.40;;;2.17;;
64873;SDS011;51367;45.204;38.576;2023-08-24T06:17:30;2.25;;;2.00;;
64873;SDS011;51367;45.204;38.576;2023-08-24T06:19:56;3.42;;;2.70;;
64873;SDS011;51367;45.204;38.576;2023-08-24T06:22:22;3.67;;;2.00;;
64873;SDS011;51367;45.204;38.576;2023-08-24T06:24:48;2.30;;;1.67;;
64873;SDS011;51367;45.204;38.576;2023-08-24T06:27:14;2.80;;;2.05;;
64873;SDS011;51367;45.204;38.576;2023-08-24T06:29:43;3.13;;;2.35;;
64873;SDS011;51367;45.204;38.576;2023-08-24T06:32:09;2.83;;;2.28;;
64873;SDS011;51367;45.204;38.576;2023-08-24T06:34:35;2.67;;;2.15;;
64873;SDS011;51367;45.204;38.576;2023-08-24T06:37:01;2.10;;;1.90;;
64873;SDS011;51367;45.204;38.576;2023-08-24T06:39:28;2.20;;;2.00;;
64873;SDS011;51367;45.204;38.576;2023-08-24T06:41:54;2.17;;;1.98;;
64873;SDS011;51367;45.204;38.576;2023-08-24T06:44:24;13.40;;;2.22;;
64873;SDS011;51367;45.204;38.576;2023-08-24T06:46:50;3.03;;;1.20;;
64873;SDS011;51367;45.204;38.576;2023-08-24T06:49:16;3.45;;;1.55;;
64873;SDS011;51367;45.204;38.576;2023-08-24T06:51:42;1.25;;;1.23;;
64873;SDS011;51367;45.204;38.576;2023-08-24T06:54:07;5.45;;;1.50;;
64873;SDS011;51367;45.204;38.576;2023-08-24T06:56:33;2.42;;;1.80;;
64873;SDS011;51367;45.204;38.576;2023-08-24T06:58:59;4.10;;;2.20;;
64873;SDS011;51367;45.204;38.576;2023-08-24T07:01:25;2.05;;;1.80;;
64873;SDS011;51367;45.204;38.576;2023-08-24T07:03:51;3.25;;;1.70;;
64873;SDS011;51367;45.204;38.576;2023-08-24T07:06:17;1.85;;;1.50;;
64873;SDS011;51367;45.204;38.576;2023-08-24T07:08:43;1.65;;;1.55;;
64873;SDS011;51367;45.204;38.576;2023-08-24T07:11:09;2.10;;;1.55;;
64873;SDS011;51367;45.204;38.576;2023-08-24T07:13:35;1.73;;;1.55;;
64873;SDS011;51367;45.204;38.576;2023-08-24T07:16:01;4.88;;;1.90;;
64873;SDS011;51367;45.204;38.576;2023-08-24T07:18:28;2.67;;;2.00;;
64873;SDS011;51367;45.204;38.576;2023-08-24T07:20:54;2.22;;;1.80;;
64873;SDS011;51367;45.204;38.576;2023-08-24T07:23:20;2.63;;;2.20;;
64873;SDS011;51367;45.204;38.576;2023-08-24T07:25:46;5.75;;;1.38;;
64873;SDS011;51367;45.204;38.576;2023-08-24T07:28:12;2.40;;;1.80;;
64873;SDS011;51367;45.204;38.576;2023-08-24T07:30:38;2.78;;;1.63;;
64873;SDS011;51367;45.204;38.576;2023-08-24T07:33:04;2.15;;;1.50;;
64873;SDS011;51367;45.204;38.576;2023-08-24T07:35:30;1.83;;;1.50;;
64873;SDS011;51367;45.204;38.576;2023-08-24T07:37:56;1.83;;;1.73;;
64873;SDS011;51367;45.204;38.576;2023-08-24T07:40:22;2.35;;;1.80;;
64873;SDS011;51367;45.204;38.576;2023-08-24T07:42:50;1.98;;;1.63;;
64873;SDS011;51367;45.204;38.576;2023-08-24T07:45:18;3.45;;;1.42;;
64873;SDS011;51367;45.204;38.576;2023-08-24T07:47:44;2.15;;;1.75;;
64873;SDS011;51367;45.204;38.576;2023-08-24T07:50:11;2.50;;;1.80;;
64873;SDS011;51367;45.204;38.576;2023-08-24T07:52:40;1.70;;;1.50;;
64873;SDS011;51367;45.204;38.576;2023-08-24T07:55:06;2.08;;;1.60;;
64873;SDS011;51367;45.204;38.576;2023-08-24T07:57:33;3.97;;;1.92;;
64873;SDS011;51367;45.204;38.576;2023-08-24T07:59:59;2.08;;;1.90;;
64873;SDS011;51367;45.204;38.576;2023-08-24T08:02:26;3.50;;;1.95;;
64873;SDS011;51367;45.204;38.576;2023-08-24T08:04:55;2.47;;;1.33;;
64873;SDS011;51367;45.204;38.576;2023-08-24T08:07:23;1.45;;;1.35;;
64873;SDS011;51367;45.204;38.576;2023-08-24T08:09:50;1.60;;;1.20;;
64873;SDS011;51367;45.204;38.576;2023-08-24T08:12:16;5.55;;;1.80;;
64873;SDS011;51367;45.204;38.576;2023-08-24T08:14:41;1.70;;;1.30;;
64873;SDS011;51367;45.204;38.576;2023-08-24T08:17:07;2.95;;;1.40;;
64873;SDS011;51367;45.204;38.576;2023-08-24T08:19:33;1.58;;;1.48;;
64873;SDS011;51367;45.204;38.576;2023-08-24T08:22:01;2.38;;;1.60;;
64873;SDS011;51367;45.204;38.576;2023-08-24T08:24:27;2.28;;;1.25;;
64873;SDS011;51367;45.204;38.576;2023-08-24T08:26:53;1.23;;;1.10;;
64873;SDS011;51367;45.204;38.576;2023-08-24T08:29:19;2.97;;;1.25;;
64873;SDS011;51367;45.204;38.576;2023-08-24T08:31:45;1.35;;;1.25;;
64873;SDS011;51367;45.204;38.576;2023-08-24T08:34:11;0.98;;;0.98;;
64873;SDS011;51367;45.204;38.576;2023-08-24T08:36:37;1.88;;;1.63;;
64873;SDS011;51367;45.204;38.576;2023-08-24T08:39:03;4.18;;;1.65;;
64873;SDS011;51367;45.204;38.576;2023-08-24T08:41:33;3.63;;;1.63;;
64873;SDS011;51367;45.204;38.576;2023-08-24T08:44:04;2.85;;;1.30;;
64873;SDS011;51367;45.204;38.576;2023-08-24T08:46:35;1.60;;;1.50;;
64873;SDS011;51367;45.204;38.576;2023-08-24T08:49:00;1.65;;;1.40;;
64873;SDS011;51367;45.204;38.576;2023-08-24T08:51:28;1.00;;;1.00;;
64873;SDS011;51367;45.204;38.576;2023-08-24T08:53:54;1.20;;;1.05;;
64873;SDS011;51367;45.204;38.576;2023-08-24T08:56:21;2.08;;;1.30;;
64873;SDS011;51367;45.204;38.576;2023-08-24T08:58:47;0.90;;;0.90;;
64873;SDS011;51367;45.204;38.576;2023-08-24T09:01:14;1.00;;;1.00;;
64873;SDS011;51367;45.204;38.576;2023-08-24T09:03:41;7.55;;;1.10;;
64873;SDS011;51367;45.204;38.576;2023-08-24T09:06:09;1.30;;;1.20;;
64873;SDS011;51367;45.204;38.576;2023-08-24T09:08:35;2.45;;;1.30;;
64873;SDS011;51367;45.204;38.576;2023-08-24T09:11:02;1.73;;;1.25;;
64873;SDS011;51367;45.204;38.576;2023-08-24T09:13:29;1.50;;;1.25;;
64873;SDS011;51367;45.204;38.576;2023-08-24T09:16:05;3.45;;;1.33;;
64873;SDS011;51367;45.204;38.576;2023-08-24T09:18:38;2.78;;;1.42;;
64873;SDS011;51367;45.204;38.576;2023-08-24T09:21:08;0.90;;;0.90;;
64873;SDS011;51367;45.204;38.576;2023-08-24T09:23:35;1.00;;;1.00;;
64873;SDS011;51367;45.204;38.576;2023-08-24T09:26:01;1.38;;;1.10;;
64873;SDS011;51367;45.204;38.576;2023-08-24T09:28:27;1.30;;;1.20;;
64873;SDS011;51367;45.204;38.576;2023-08-24T09:30:53;1.58;;;1.20;;
64873;SDS011;51367;45.204;38.576;2023-08-24T09:33:22;1.10;;;1.10;;
64873;SDS011;51367;45.204;38.576;2023-08-24T09:35:52;1.25;;;1.15;;
64873;SDS011;51367;45.204;38.576;2023-08-24T09:38:21;1.10;;;1.00;;
64873;SDS011;51367;45.204;38.576;2023-08-24T09:40:52;1.45;;;1.35;;
64873;SDS011;51367;45.204;38.576;2023-08-24T09:43:19;1.15;;;0.98;;
64873;SDS011;51367;45.204;38.576;2023-08-24T09:45:55;1.00;;;0.93;;
64873;SDS011;51367;45.204;38.576;2023-08-24T09:48:22;0.98;;;0.90;;
64873;SDS011;51367;45.204;38.576;2023-08-24T09:50:50;2.38;;;1.10;;
64873;SDS011;51367;45.204;38.576;2023-08-24T09:53:17;6.00;;;1.00;;
64873;SDS011;51367;45.204;38.576;2023-08-24T09:56:06;1.25;;;1.17;;
64873;SDS011;51367;45.204;38.576;2023-08-24T09:58:34;8.57;;;1.67;;
64873;SDS011;51367;45.204;38.576;2023-08-24T10:01:00;3.67;;;1.10;;
64873;SDS011;51367;45.204;38.576;2023-08-24T10:03:28;2.33;;;1.33;;
64873;SDS011;51367;45.204;38.576;2023-08-24T10:05:57;1.05;;;1.05;;
64873;SDS011;51367;45.204;38.576;2023-08-24T10:08:29;1.58;;;1.30;;
64873;SDS011;51367;45.204;38.576;2023-08-24T10:11:00;1.75;;;1.50;;
64873;SDS011;51367;45.204;38.576;2023-08-24T10:15:57;1.80;;;1.13;;
64873;SDS011;51367;45.204;38.576;2023-08-24T10:18:25;2.70;;;1.55;;
64873;SDS011;51367;45.204;38.576;2023-08-24T10:20:52;5.82;;;1.83;;
64873;SDS011;51367;45.204;38.576;2023-08-24T10:23:19;3.05;;;1.35;;
64873;SDS011;51367;45.204;38.576;2023-08-24T10:25:49;4.05;;;1.67;;
64873;SDS011;51367;45.204;38.576;2023-08-24T10:28:17;1.02;;;1.02;;
64873;SDS011;51367;45.204;38.576;2023-08-24T10:30:45;2.25;;;1.63;;
64873;SDS011;51367;45.204;38.576;2023-08-24T10:33:12;3.67;;;1.02;;
64873;SDS011;51367;45.204;38.576;2023-08-24T10:35:39;1.65;;;1.20;;
64873;SDS011;51367;45.204;38.576;2023-08-24T10:38:06;1.70;;;1.60;;
64873;SDS011;51367;45.204;38.576;2023-08-24T10:40:33;2.75;;;2.05;;
64873;SDS011;51367;45.204;38.576;2023-08-24T10:43:03;2.05;;;1.25;;
64873;SDS011;51367;45.204;38.576;2023-08-24T10:48:21;1.63;;;1.35;;
64873;SDS011;51367;45.204;38.576;2023-08-24T10:53:46;3.25;;;1.27;;
64873;SDS011;51367;45.204;38.576;2023-08-24T10:56:19;2.38;;;1.13;;
64873;SDS011;51367;45.204;38.576;2023-08-24T10:58:46;9.65;;;1.60;;
64873;SDS011;51367;45.204;38.576;2023-08-24T11:01:18;5.78;;;1.35;;
64873;SDS011;51367;45.204;38.576;2023-08-24T11:03:54;1.88;;;1.45;;
64873;SDS011;51367;45.204;38.576;2023-08-24T11:06:21;1.08;;;1.08;;
64873;SDS011;51367;45.204;38.576;2023-08-24T11:08:48;3.25;;;1.45;;
64873;SDS011;51367;45.204;38.576;2023-08-24T11:11:21;1.45;;;1.35;;
64873;SDS011;51367;45.204;38.576;2023-08-24T11:16:43;4.78;;;1.42;;
64873;SDS011;51367;45.204;38.576;2023-08-24T11:19:10;11.32;;;1.27;;
64873;SDS011;51367;45.204;38.576;2023-08-24T11:21:38;1.35;;;1.05;;
64873;SDS011;51367;45.204;38.576;2023-08-24T11:24:05;6.68;;;1.23;;
64873;SDS011;51367;45.204;38.576;2023-08-24T11:26:31;1.13;;;0.98;;
64873;SDS011;51367;45.204;38.576;2023-08-24T11:28:57;1.92;;;1.40;;
64873;SDS011;51367;45.204;38.576;2023-08-24T11:31:24;1.13;;;1.08;;
64873;SDS011;51367;45.204;38.576;2023-08-24T11:33:53;1.20;;;1.10;;
64873;SDS011;51367;45.204;38.576;2023-08-24T11:36:23;1.38;;;1.15;;
64873;SDS011;51367;45.204;38.576;2023-08-24T11:38:51;1.30;;;1.13;;
64873;SDS011;51367;45.204;38.576;2023-08-24T11:41:19;5.07;;;1.98;;
64873;SDS011;51367;45.204;38.576;2023-08-24T11:43:47;3.20;;;1.30;;
64873;SDS011;51367;45.204;38.576;2023-08-24T11:46:16;1.73;;;1.20;;
64873;SDS011;51367;45.204;38.576;2023-08-24T11:48:44;3.92;;;1.48;;
64873;SDS011;51367;45.204;38.576;2023-08-24T11:51:11;1.38;;;1.10;;
64873;SDS011;51367;45.204;38.576;2023-08-24T11:53:39;1.85;;;1.58;;
64873;SDS011;51367;45.204;38.576;2023-08-24T11:56:07;1.00;;;1.00;;
64873;SDS011;51367;45.204;38.576;2023-08-24T11:58:38;1.23;;;1.13;;
64873;SDS011;51367;45.204;38.576;2023-08-24T12:01:05;1.25;;;1.15;;
64873;SDS011;51367;45.204;38.576;2023-08-24T12:03:32;2.47;;;1.30;;
64873;SDS011;51367;45.204;38.576;2023-08-24T12:05:59;2.58;;;1.23;;
64873;SDS011;51367;45.204;38.576;2023-08-24T12:08:26;1.38;;;1.27;;
64873;SDS011;51367;45.204;38.576;2023-08-24T12:10:52;5.28;;;1.02;;
64873;SDS011;51367;45.204;38.576;2023-08-24T12:13:17;1.33;;;1.17;;
64873;SDS011;51367;45.204;38.576;2023-08-24T12:15:43;2.38;;;1.67;;
64873;SDS011;51367;45.204;38.576;2023-08-24T12:18:13;1.77;;;1.58;;
64873;SDS011;51367;45.204;38.576;2023-08-24T12:20:40;3.15;;;1.38;;
64873;SDS011;51367;45.204;38.576;2023-08-24T12:23:07;1.63;;;1.00;;
64873;SDS011;51367;45.204;38.576;2023-08-24T12:25:37;3.88;;;1.33;;
64873;SDS011;51367;45.204;38.576;2023-08-24T12:28:13;3.00;;;1.48;;
64873;SDS011;51367;45.204;38.576;2023-08-24T12:30:50;1.17;;;1.10;;
64873;SDS011;51367;45.204;38.576;2023-08-24T12:33:27;1.20;;;1.10;;
64873;SDS011;51367;45.204;38.576;2023-08-24T12:35:54;1.52;;;1.42;;
64873;SDS011;51367;45.204;38.576;2023-08-24T12:38:21;11.85;;;1.20;;
64873;SDS011;51367;45.204;38.576;2023-08-24T12:40:47;1.88;;;1.33;;
64873;SDS011;51367;45.204;38.576;2023-08-24T12:43:14;0.90;;;0.90;;
64873;SDS011;51367;45.204;38.576;2023-08-24T12:45:40;1.48;;;1.30;;
64873;SDS011;51367;45.204;38.576;2023-08-24T12:48:06;4.70;;;1.20;;
64873;SDS011;51367;45.204;38.576;2023-08-24T12:50:36;2.00;;;1.58;;
64873;SDS011;51367;45.204;38.576;2023-08-24T12:53:02;2.50;;;1.38;;
64873;SDS011;51367;45.204;38.576;2023-08-24T12:55:31;1.30;;;1.20;;
64873;SDS011;51367;45.204;38.576;2023-08-24T12:57:58;3.53;;;1.38;;
64873;SDS011;51367;45.204;38.576;2023-08-24T13:00:24;1.17;;;1.08;;
64873;SDS011;51367;45.204;38.576;2023-08-24T13:02:52;5.35;;;1.33;;
64873;SDS011;51367;45.204;38.576;2023-08-24T13:05:18;3.38;;;1.40;;
64873;SDS011;51367;45.204;38.576;2023-08-24T13:07:43;3.13;;;1.65;;
64873;SDS011;51367;45.204;38.576;2023-08-24T13:10:10;1.13;;;1.02;;
64873;SDS011;51367;45.204;38.576;2023-08-24T13:12:37;2.17;;;1.35;;
64873;SDS011;51367;45.204;38.576;2023-08-24T13:15:03;4.28;;;1.38;;
64873;SDS011;51367;45.204;38.576;2023-08-24T13:17:30;24.80;;;2.15;;
64873;SDS011;51367;45.204;38.576;2023-08-24T13:19:56;1.17;;;1.08;;
64873;SDS011;51367;45.204;38.576;2023-08-24T13:22:22;3.58;;;1.48;;
64873;SDS011;51367;45.204;38.576;2023-08-24T13:24:48;2.03;;;1.40;;
64873;SDS011;51367;45.204;38.576;2023-08-24T13:27:14;2.38;;;1.08;;
64873;SDS011;51367;45.204;38.576;2023-08-24T13:29:40;2.03;;;1.05;;
64873;SDS011;51367;45.204;38.576;2023-08-24T13:32:06;7.93;;;1.55;;
64873;SDS011;51367;45.204;38.576;2023-08-24T13:34:32;14.13;;;1.50;;
64873;SDS011;51367;45.204;38.576;2023-08-24T13:36:59;1.55;;;1.10;;
64873;SDS011;51367;45.204;38.576;2023-08-24T13:39:25;12.95;;;1.60;;
64873;SDS011;51367;45.204;38.576;2023-08-24T13:41:53;5.18;;;1.52;;
64873;SDS011;51367;45.204;38.576;2023-08-24T13:44:20;4.43;;;1.40;;
64873;SDS011;51367;45.204;38.576;2023-08-24T13:46:46;4.38;;;1.20;;
64873;SDS011;51367;45.204;38.576;2023-08-24T13:49:12;2.00;;;1.20;;
64873;SDS011;51367;45.204;38.576;2023-08-24T13:51:38;5.40;;;1.10;;
64873;SDS011;51367;45.204;38.576;2023-08-24T13:54:16;1.00;;;1.00;;
64873;SDS011;51367;45.204;38.576;2023-08-24T13:56:44;2.75;;;1.05;;
64873;SDS011;51367;45.204;38.576;2023-08-24T13:59:14;2.20;;;1.20;;
64873;SDS011;51367;45.204;38.576;2023-08-24T14:01:40;2.45;;;1.10;;
64873;SDS011;51367;45.204;38.576;2023-08-24T14:04:06;1.48;;;1.13;;
64873;SDS011;51367;45.204;38.576;2023-08-24T14:06:33;5.65;;;1.38;;
64873;SDS011;51367;45.204;38.576;2023-08-24T14:09:06;1.52;;;1.42;;
64873;SDS011;51367;45.204;38.576;2023-08-24T14:11:32;2.05;;;1.40;;
64873;SDS011;51367;45.204;38.576;2023-08-24T14:13:58;5.30;;;1.90;;
64873;SDS011;51367;45.204;38.576;2023-08-24T14:16:25;2.70;;;1.50;;
64873;SDS011;51367;45.204;38.576;2023-08-24T14:18:52;1.80;;;1.40;;
64873;SDS011;51367;45.204;38.576;2023-08-24T14:21:18;2.13;;;1.80;;
64873;SDS011;51367;45.204;38.576;2023-08-24T14:23:45;6.22;;;1.50;;
64873;SDS011;51367;45.204;38.576;2023-08-24T14:26:12;1.88;;;1.73;;
64873;SDS011;51367;45.204;38.576;2023-08-24T14:31:29;12.43;;;1.00;;
64873;SDS011;51367;45.204;38.576;2023-08-24T14:33:55;1.33;;;1.17;;
64873;SDS011;51367;45.204;38.576;2023-08-24T14:36:22;1.90;;;1.05;;
64873;SDS011;51367;45.204;38.576;2023-08-24T14:38:49;1.23;;;0.82;;
64873;SDS011;51367;45.204;38.576;2023-08-24T14:41:17;1.52;;;1.00;;
64873;SDS011;51367;45.204;38.576;2023-08-24T14:43:43;4.38;;;1.58;;
64873;SDS011;51367;45.204;38.576;2023-08-24T14:46:09;2.72;;;1.17;;
64873;SDS011;51367;45.204;38.576;2023-08-24T14:48:35;1.30;;;1.20;;
64873;SDS011;51367;45.204;38.576;2023-08-24T14:51:01;2.28;;;1.10;;